Time;durP1;ratioP1;P1;durP2;ratioP2;P2;SDS_P1;SDS_P2;PMS_P1;PMS_P2;Temp;Humidity;BMP_temperature;BMP_pressure;BME280_temperature;BME280_humidity;BME280_pressure;Samples;Min_cycle;Max_cycle;Signal;HPM_P1;HPM_P2
2022/08/23 00:01:16;;;;;;;19.80;16.40;;;;;;;;;;4960813;28;20019;-76
2022/08/23 00:03:42;;;;;;;31.38;18.38;;;;;;;;;;4973593;28;20109;-76
2022/08/23 00:06:10;;;;;;;23.83;19.20;;;;;;;;;;4969238;28;20082;-76
2022/08/23 00:08:37;;;;;;;24.77;17.08;;;;;;;;;;4966118;28;20077;-76
2022/08/23 00:11:03;;;;;;;24.90;18.45;;;;;;;;;;4975800;28;20049;-78
2022/08/23 00:13:30;;;;;;;25.88;18.42;;;;;;;;;;4975366;28;20023;-76
2022/08/23 00:15:57;;;;;;;28.17;19.45;;;;;;;;;;4973785;28;20473;-77
2022/08/23 00:18:23;;;;;;;25.88;17.25;;;;;;;;;;4970767;28;20046;-77
2022/08/23 00:20:50;;;;;;;25.60;18.83;;;;;;;;;;4971105;28;20034;-77
2022/08/23 00:23:16;;;;;;;23.42;16.58;;;;;;;;;;4973437;28;20022;-75
2022/08/23 00:25:42;;;;;;;29.17;18.83;;;;;;;;;;4973258;28;20018;-76
2022/08/23 00:28:09;;;;;;;23.48;17.70;;;;;;;;;;4968498;28;20028;-75
2022/08/23 00:30:35;;;;;;;26.13;18.95;;;;;;;;;;4972190;28;20027;-76
2022/08/23 00:33:01;;;;;;;23.35;17.50;;;;;;;;;;4972904;28;20114;-76
2022/08/23 00:35:28;;;;;;;25.75;17.45;;;;;;;;;;4972939;28;20097;-77
2022/08/23 00:37:56;;;;;;;23.27;16.38;;;;;;;;;;4972932;28;20109;-76
2022/08/23 00:40:22;;;;;;;23.27;16.27;;;;;;;;;;4968349;28;20026;-77
2022/08/23 00:48:29;;;;;;;21.20;16.50;;;;;;;;;;4974013;28;20594;-76
2022/08/23 00:50:55;;;;;;;23.75;18.27;;;;;;;;;;4972762;28;20488;-75
2022/08/23 00:53:23;;;;;;;22.33;16.15;;;;;;;;;;4973596;28;20038;-75
2022/08/23 00:55:51;;;;;;;22.63;17.60;;;;;;;;;;4972857;28;20105;-76
2022/08/23 00:58:18;;;;;;;23.00;18.52;;;;;;;;;;4961930;28;20027;-77
2022/08/23 01:00:44;;;;;;;30.02;20.75;;;;;;;;;;4969871;28;20508;-76
2022/08/23 01:03:13;;;;;;;25.52;18.27;;;;;;;;;;4972995;28;20031;-76
2022/08/23 01:06:02;;;;;;;18.13;15.18;;;;;;;;;;4972962;28;20105;-77
2022/08/23 01:08:29;;;;;;;28.60;19.48;;;;;;;;;;4967823;28;20129;-77
2022/08/23 01:11:13;;;;;;;23.00;17.33;;;;;;;;;;4974489;28;20034;-77
2022/08/23 01:13:43;;;;;;;25.10;18.35;;;;;;;;;;4973344;28;20027;-76
2022/08/23 01:16:11;;;;;;;21.30;15.05;;;;;;;;;;4975570;28;20023;-76
2022/08/23 01:18:37;;;;;;;27.23;19.88;;;;;;;;;;4976346;28;20023;-76
2022/08/23 01:21:14;;;;;;;23.80;16.65;;;;;;;;;;4976593;28;20031;-77
2022/08/23 01:23:40;;;;;;;23.80;17.08;;;;;;;;;;4977227;28;20035;-77
2022/08/23 01:26:06;;;;;;;24.02;18.48;;;;;;;;;;4976531;28;20135;-76
2022/08/23 01:28:32;;;;;;;28.67;17.10;;;;;;;;;;4974439;28;20410;-76
2022/08/23 01:30:59;;;;;;;24.15;18.52;;;;;;;;;;4974226;28;20039;-76
2022/08/23 01:33:25;;;;;;;23.20;18.80;;;;;;;;;;4974601;28;20027;-76
2022/08/23 01:35:54;;;;;;;29.58;19.95;;;;;;;;;;4983098;28;20019;-76
2022/08/23 01:38:21;;;;;;;22.40;15.70;;;;;;;;;;4983407;28;20517;-76
2022/08/23 01:40:47;;;;;;;20.60;15.65;;;;;;;;;;4984794;28;20034;-76
2022/08/23 01:43:14;;;;;;;22.58;17.52;;;;;;;;;;4983497;28;20461;-76
2022/08/23 01:45:40;;;;;;;22.55;17.08;;;;;;;;;;4976474;28;20050;-76
2022/08/23 01:48:06;;;;;;;20.30;17.38;;;;;;;;;;4971726;28;20062;-76
2022/08/23 01:50:33;;;;;;;22.33;16.70;;;;;;;;;;4970777;28;20113;-75
2022/08/23 01:52:59;;;;;;;21.42;16.13;;;;;;;;;;4976020;28;20035;-77
2022/08/23 01:55:25;;;;;;;23.23;16.33;;;;;;;;;;4972687;28;20027;-77
2022/08/23 01:57:53;;;;;;;23.85;17.75;;;;;;;;;;4977286;28;20034;-76
2022/08/23 02:00:21;;;;;;;25.95;15.93;;;;;;;;;;4980976;28;20027;-76
2022/08/23 02:02:47;;;;;;;23.33;18.38;;;;;;;;;;4980308;28;20030;-77
2022/08/23 02:05:13;;;;;;;24.83;18.25;;;;;;;;;;4975716;28;20027;-77
2022/08/23 02:07:39;;;;;;;18.70;15.65;;;;;;;;;;4974886;28;20485;-76
2022/08/23 02:10:06;;;;;;;25.73;17.75;;;;;;;;;;4977162;28;20079;-77
2022/08/23 02:12:32;;;;;;;18.10;14.85;;;;;;;;;;4976962;28;20034;-76
2022/08/23 02:15:01;;;;;;;22.70;16.98;;;;;;;;;;4977026;28;20015;-76
2022/08/23 02:17:27;;;;;;;27.67;19.30;;;;;;;;;;4973309;28;20023;-76
2022/08/23 02:19:54;;;;;;;24.02;18.92;;;;;;;;;;4970995;28;20544;-76
2022/08/23 02:22:21;;;;;;;26.73;21.30;;;;;;;;;;4971682;28;20030;-77
2022/08/23 02:24:48;;;;;;;22.52;16.85;;;;;;;;;;4971828;28;20508;-76
2022/08/23 02:27:14;;;;;;;23.30;18.00;;;;;;;;;;4968332;28;20027;-76
2022/08/23 02:29:41;;;;;;;22.15;17.52;;;;;;;;;;4975240;28;20029;-76
2022/08/23 02:32:07;;;;;;;22.85;17.95;;;;;;;;;;4975464;28;20513;-76
2022/08/23 02:34:35;;;;;;;28.92;18.08;;;;;;;;;;4973943;28;20401;-77
2022/08/23 02:37:01;;;;;;;21.42;16.38;;;;;;;;;;4975068;28;20026;-76
2022/08/23 02:39:27;;;;;;;20.98;17.25;;;;;;;;;;4974760;28;20025;-75
2022/08/23 02:41:53;;;;;;;27.98;17.85;;;;;;;;;;4975291;28;20027;-76
2022/08/23 02:44:20;;;;;;;22.02;17.60;;;;;;;;;;4974716;28;20438;-77
2022/08/23 02:46:46;;;;;;;20.45;17.98;;;;;;;;;;4964034;28;20031;-77
2022/08/23 02:49:12;;;;;;;26.75;20.52;;;;;;;;;;4971325;28;20400;-77
2022/08/23 02:51:40;;;;;;;26.92;18.30;;;;;;;;;;4972501;28;20086;-77
2022/08/23 02:54:06;;;;;;;19.27;15.80;;;;;;;;;;4971365;28;20031;-77
2022/08/23 02:56:33;;;;;;;28.10;20.40;;;;;;;;;;4975036;28;20023;-77
2022/08/23 02:58:59;;;;;;;23.98;19.13;;;;;;;;;;4974397;28;20117;-77
2022/08/23 03:01:27;;;;;;;23.00;17.38;;;;;;;;;;4975009;28;20543;-76
2022/08/23 03:03:53;;;;;;;31.20;18.58;;;;;;;;;;4974529;28;20050;-76
2022/08/23 03:06:20;;;;;;;27.05;20.15;;;;;;;;;;4972922;28;20030;-77
2022/08/23 03:08:46;;;;;;;144.57;64.55;;;;;;;;;;4971375;28;20030;-77
2022/08/23 03:11:13;;;;;;;492.70;222.77;;;;;;;;;;4977365;28;20027;-77
2022/08/23 03:13:40;;;;;;;130.70;53.92;;;;;;;;;;4978118;28;20392;-78
2022/08/23 03:16:07;;;;;;;58.88;31.75;;;;;;;;;;4972747;28;20043;-78
2022/08/23 03:18:34;;;;;;;32.80;21.25;;;;;;;;;;4969448;28;20536;-78
2022/08/23 03:21:00;;;;;;;71.53;33.88;;;;;;;;;;4993263;23;20157;-78
2022/08/23 03:23:26;;;;;;;34.67;18.98;;;;;;;;;;4996026;28;20026;-77
2022/08/23 03:25:52;;;;;;;83.45;35.50;;;;;;;;;;4996510;28;20342;-78
2022/08/23 03:28:19;;;;;;;67.45;31.58;;;;;;;;;;4994084;28;20026;-78
2022/08/23 03:30:45;;;;;;;50.30;25.25;;;;;;;;;;4993836;28;20081;-76
2022/08/23 03:33:11;;;;;;;52.40;25.80;;;;;;;;;;4993899;28;20039;-76
2022/08/23 03:35:37;;;;;;;24.17;18.17;;;;;;;;;;4993472;28;20022;-77
2022/08/23 03:38:03;;;;;;;29.55;19.42;;;;;;;;;;4992845;28;20088;-77
2022/08/23 03:40:29;;;;;;;45.80;27.42;;;;;;;;;;4993965;28;20157;-76
2022/08/23 03:42:55;;;;;;;28.55;19.63;;;;;;;;;;4993589;28;20062;-77
2022/08/23 03:45:21;;;;;;;22.33;17.15;;;;;;;;;;4993920;28;20034;-77
2022/08/23 03:47:47;;;;;;;27.15;18.85;;;;;;;;;;4993620;28;20022;-77
2022/08/23 03:50:13;;;;;;;19.48;15.38;;;;;;;;;;4993477;28;20037;-76
2022/08/23 03:52:39;;;;;;;24.55;18.63;;;;;;;;;;4976985;28;20084;-76
2022/08/23 03:55:05;;;;;;;23.67;16.63;;;;;;;;;;4994573;28;20480;-78
2022/08/23 03:57:31;;;;;;;22.52;17.02;;;;;;;;;;4995357;28;20030;-77
2022/08/23 03:59:58;;;;;;;27.17;15.88;;;;;;;;;;4995221;28;20030;-78
2022/08/23 04:02:24;;;;;;;20.17;16.02;;;;;;;;;;4994598;28;20022;-77
2022/08/23 04:04:50;;;;;;;17.73;13.38;;;;;;;;;;4993297;28;20031;-74
2022/08/23 04:07:22;;;;;;;18.73;15.88;;;;;;;;;;4992767;28;20022;-76
2022/08/23 04:09:48;;;;;;;18.65;14.07;;;;;;;;;;4992987;28;20052;-75
2022/08/23 04:12:14;;;;;;;24.20;15.07;;;;;;;;;;4975353;28;20026;-75
2022/08/23 04:14:40;;;;;;;18.88;14.10;;;;;;;;;;4993233;28;20038;-75
2022/08/23 04:17:06;;;;;;;22.63;16.02;;;;;;;;;;4992699;28;20366;-75
2022/08/23 04:19:32;;;;;;;19.00;15.02;;;;;;;;;;4975082;28;20038;-75
2022/08/23 04:21:58;;;;;;;20.13;15.45;;;;;;;;;;4975419;28;20022;-75
2022/08/23 04:24:25;;;;;;;20.40;14.90;;;;;;;;;;4975365;28;20038;-76
2022/08/23 04:26:51;;;;;;;20.20;15.45;;;;;;;;;;4975689;28;20033;-76
2022/08/23 04:29:17;;;;;;;20.77;15.82;;;;;;;;;;4992480;28;20030;-76
2022/08/23 04:31:44;;;;;;;19.33;15.52;;;;;;;;;;4992876;28;20053;-76
2022/08/23 04:34:10;;;;;;;23.77;16.77;;;;;;;;;;4992823;28;20088;-76
2022/08/23 04:36:37;;;;;;;21.30;16.27;;;;;;;;;;4992806;28;20432;-76
2022/08/23 04:39:03;;;;;;;15.00;12.98;;;;;;;;;;4974609;28;20022;-76
2022/08/23 04:44:14;;;;;;;19.58;15.02;;;;;;;;;;4993216;28;20073;-77
2022/08/23 04:46:42;;;;;;;15.30;13.65;;;;;;;;;;4976632;28;20488;-77
2022/08/23 04:49:08;;;;;;;21.90;15.77;;;;;;;;;;4994031;28;20034;-77
2022/08/23 04:51:34;;;;;;;21.33;14.60;;;;;;;;;;4976128;28;20551;-77
2022/08/23 04:54:01;;;;;;;21.52;14.40;;;;;;;;;;4994204;28;20031;-77
2022/08/23 04:56:27;;;;;;;19.27;14.73;;;;;;;;;;4994232;28;20093;-77
2022/08/23 04:58:53;;;;;;;18.23;15.38;;;;;;;;;;4976552;28;20023;-77
2022/08/23 05:01:19;;;;;;;21.48;14.18;;;;;;;;;;4976890;28;20025;-77
2022/08/23 05:03:45;;;;;;;17.92;15.68;;;;;;;;;;4976593;28;20477;-76
2022/08/23 05:06:14;;;;;;;19.67;15.30;;;;;;;;;;4993132;28;20037;-76
2022/08/23 05:08:42;;;;;;;23.08;14.82;;;;;;;;;;4993945;28;20318;-76
2022/08/23 05:11:10;;;;;;;21.88;16.55;;;;;;;;;;4995392;28;20033;-77
2022/08/23 05:13:37;;;;;;;19.75;14.70;;;;;;;;;;4993654;28;20072;-76
2022/08/23 05:16:03;;;;;;;17.27;15.43;;;;;;;;;;4992951;28;20074;-75
2022/08/23 05:18:29;;;;;;;20.10;15.10;;;;;;;;;;4993601;28;20019;-75
2022/08/23 05:20:55;;;;;;;19.45;14.98;;;;;;;;;;4993413;28;20052;-76
2022/08/23 05:23:21;;;;;;;22.25;15.50;;;;;;;;;;4994483;28;20484;-76
2022/08/23 05:25:51;;;;;;;18.55;14.85;;;;;;;;;;4996019;28;20444;-76
2022/08/23 05:28:19;;;;;;;16.60;13.15;;;;;;;;;;5003448;28;20062;-78
2022/08/23 05:30:45;;;;;;;19.05;14.85;;;;;;;;;;4998004;28;20018;-76
2022/08/23 05:33:12;;;;;;;18.98;14.15;;;;;;;;;;5015825;28;20346;-76
2022/08/23 05:35:39;;;;;;;19.80;12.88;;;;;;;;;;5015511;28;20014;-77
2022/08/23 05:38:05;;;;;;;23.17;14.85;;;;;;;;;;5012298;28;20014;-77
2022/08/23 05:40:31;;;;;;;16.20;12.95;;;;;;;;;;5007771;28;20577;-77
2022/08/23 05:42:57;;;;;;;15.90;12.48;;;;;;;;;;5010705;28;20053;-77
2022/08/23 05:45:23;;;;;;;15.50;12.73;;;;;;;;;;4995312;28;20027;-77
2022/08/23 05:47:49;;;;;;;17.42;13.48;;;;;;;;;;4994526;28;20397;-77
2022/08/23 05:50:15;;;;;;;15.90;12.35;;;;;;;;;;4994809;28;20034;-78
2022/08/23 05:52:41;;;;;;;21.35;13.57;;;;;;;;;;5006893;28;20034;-76
2022/08/23 05:55:16;;;;;;;18.92;14.10;;;;;;;;;;4977246;28;20030;-79
2022/08/23 05:57:42;;;;;;;15.98;14.23;;;;;;;;;;4999206;28;20492;-76
2022/08/23 06:00:14;;;;;;;16.85;13.20;;;;;;;;;;4983028;28;20026;-76
2022/08/23 06:02:46;;;;;;;;;;;;;;;;;;5001963;28;20015;-76
2022/08/23 06:05:12;;;;;;;19.90;14.57;;;;;;;;;;4993767;28;19964;-75
2022/08/23 06:07:38;;;;;;;15.85;13.13;;;;;;;;;;4995078;28;20130;-76
2022/08/23 06:10:04;;;;;;;19.85;14.77;;;;;;;;;;4977666;28;20026;-76
2022/08/23 06:12:32;;;;;;;18.20;13.32;;;;;;;;;;4994947;28;20034;-77
2022/08/23 06:14:58;;;;;;;18.77;12.57;;;;;;;;;;4995130;28;20365;-75
2022/08/23 06:17:24;;;;;;;16.30;13.55;;;;;;;;;;4994594;28;20025;-76
2022/08/23 06:19:50;;;;;;;18.38;13.88;;;;;;;;;;4995747;28;20120;-77
2022/08/23 06:22:17;;;;;;;22.83;14.40;;;;;;;;;;4995536;28;20022;-76
2022/08/23 06:24:43;;;;;;;18.05;13.75;;;;;;;;;;4989623;28;20022;-77
2022/08/23 06:27:10;;;;;;;17.15;12.95;;;;;;;;;;4993211;28;20041;-77
2022/08/23 06:29:37;;;;;;;18.10;13.52;;;;;;;;;;4977984;28;20415;-77
2022/08/23 06:32:03;;;;;;;16.35;11.82;;;;;;;;;;4994445;28;20041;-78
2022/08/23 06:34:33;;;;;;;16.10;11.40;;;;;;;;;;4995271;28;20030;-77
2022/08/23 06:37:07;;;;;;;16.08;12.20;;;;;;;;;;4977345;28;20511;-76
2022/08/23 06:39:33;;;;;;;17.80;9.90;;;;;;;;;;4977422;28;20085;-76
2022/08/23 06:42:01;;;;;;;13.55;9.15;;;;;;;;;;4998073;28;20018;-79
2022/08/23 06:44:28;;;;;;;18.20;10.75;;;;;;;;;;5004254;28;20033;-78
2022/08/23 06:46:55;;;;;;;14.32;9.45;;;;;;;;;;5005877;28;20041;-78
2022/08/23 06:49:22;;;;;;;14.00;9.73;;;;;;;;;;5011465;28;20035;-78
2022/08/23 06:51:49;;;;;;;14.38;9.68;;;;;;;;;;4993755;28;20065;-79
2022/08/23 06:54:16;;;;;;;15.48;9.68;;;;;;;;;;5009344;28;20033;-79
2022/08/23 06:56:43;;;;;;;12.52;9.05;;;;;;;;;;4987766;28;20018;-79
2022/08/23 06:59:09;;;;;;;11.13;8.80;;;;;;;;;;4999778;28;20029;-79
2022/08/23 07:01:40;;;;;;;13.20;8.65;;;;;;;;;;5001005;28;20381;-78
2022/08/23 07:04:08;;;;;;;11.55;8.80;;;;;;;;;;4998767;28;20113;-79
2022/08/23 07:06:34;;;;;;;13.52;8.15;;;;;;;;;;4999368;28;20058;-79
2022/08/23 07:09:00;;;;;;;8.90;7.88;;;;;;;;;;4978414;28;20026;-79
2022/08/23 07:11:30;;;;;;;11.98;8.93;;;;;;;;;;4982074;28;20053;-79
2022/08/23 07:13:59;;;;;;;11.23;7.32;;;;;;;;;;4999302;28;20023;-79
2022/08/23 07:16:26;;;;;;;10.48;7.82;;;;;;;;;;4980726;28;20026;-78
2022/08/23 07:18:54;;;;;;;10.40;8.27;;;;;;;;;;4980886;28;20030;-76
2022/08/23 07:21:20;;;;;;;17.05;8.88;;;;;;;;;;4996210;28;20030;-78
2022/08/23 07:23:46;;;;;;;9.63;7.45;;;;;;;;;;4977990;28;20034;-77
2022/08/23 07:26:13;;;;;;;9.52;7.18;;;;;;;;;;4996060;28;20408;-77
2022/08/23 07:28:39;;;;;;;11.52;8.13;;;;;;;;;;4995692;28;20038;-76
2022/08/23 07:31:05;;;;;;;11.95;9.38;;;;;;;;;;4995323;28;20045;-77
2022/08/23 07:33:31;;;;;;;13.98;9.45;;;;;;;;;;4976724;28;20038;-78
2022/08/23 07:35:58;;;;;;;14.57;10.52;;;;;;;;;;4988132;28;20019;-75
2022/08/23 07:38:24;;;;;;;16.35;10.23;;;;;;;;;;4993141;28;20102;-74
2022/08/23 07:40:50;;;;;;;19.27;11.80;;;;;;;;;;4990787;28;20101;-77
2022/08/23 07:43:16;;;;;;;11.75;10.20;;;;;;;;;;4971330;28;20354;-76
2022/08/23 07:45:43;;;;;;;29.85;21.60;;;;;;;;;;4978965;28;20061;-77
2022/08/23 07:48:10;;;;;;;19.10;12.15;;;;;;;;;;4986486;28;20369;-78
2022/08/23 07:50:36;;;;;;;15.07;10.52;;;;;;;;;;4991906;28;20057;-78
2022/08/23 07:53:02;;;;;;;15.10;9.88;;;;;;;;;;4989337;28;20030;-77
2022/08/23 07:55:28;;;;;;;14.60;10.20;;;;;;;;;;4977797;28;20029;-79
2022/08/23 07:57:54;;;;;;;11.00;9.35;;;;;;;;;;4987010;28;20022;-79
2022/08/23 08:00:20;;;;;;;13.20;9.02;;;;;;;;;;4989404;28;20109;-79
2022/08/23 08:02:46;;;;;;;11.57;8.55;;;;;;;;;;4988830;28;20026;-77
2022/08/23 08:05:12;;;;;;;13.88;9.57;;;;;;;;;;4979863;28;20038;-78
2022/08/23 08:07:38;;;;;;;11.60;8.75;;;;;;;;;;4985769;28;20064;-78
2022/08/23 08:10:05;;;;;;;11.40;9.05;;;;;;;;;;4990184;28;20033;-79
2022/08/23 08:12:32;;;;;;;12.63;9.18;;;;;;;;;;4991954;28;20026;-78
2022/08/23 08:14:58;;;;;;;10.60;8.75;;;;;;;;;;4978205;28;20508;-76
2022/08/23 08:17:24;;;;;;;12.90;9.27;;;;;;;;;;4982538;28;20019;-74
2022/08/23 08:19:50;;;;;;;14.60;8.70;;;;;;;;;;4988975;28;20033;-75
2022/08/23 08:22:16;;;;;;;12.10;8.57;;;;;;;;;;4975228;28;20026;-76
2022/08/23 08:24:42;;;;;;;11.68;8.93;;;;;;;;;;4977972;28;20461;-73
2022/08/23 08:27:09;;;;;;;264.35;187.98;;;;;;;;;;4979713;28;20022;-74
2022/08/23 08:29:35;;;;;;;33.17;24.55;;;;;;;;;;4988885;28;20089;-75
2022/08/23 08:32:02;;;;;;;123.03;86.65;;;;;;;;;;4991290;28;20038;-75
2022/08/23 08:34:28;;;;;;;72.15;46.40;;;;;;;;;;4979453;28;20034;-75
2022/08/23 08:36:55;;;;;;;21.30;14.00;;;;;;;;;;4960650;28;20019;-74
2022/08/23 08:39:29;;;;;;;15.27;12.05;;;;;;;;;;4986820;28;20038;-76
2022/08/23 08:42:14;;;;;;;13.15;9.93;;;;;;;;;;4991429;28;20022;-75
2022/08/23 08:44:48;;;;;;;12.30;9.60;;;;;;;;;;4986926;28;21097;-75
2022/08/23 08:47:26;;;;;;;20.10;15.77;;;;;;;;;;4980482;28;20054;-66
2022/08/23 08:49:55;;;;;;;24.25;17.45;;;;;;;;;;4988403;28;20027;-66
2022/08/23 08:52:24;;;;;;;12.27;10.13;;;;;;;;;;4972913;28;20030;-66
2022/08/23 08:54:55;;;;;;;14.27;12.20;;;;;;;;;;4977870;28;20029;-77
2022/08/23 08:57:21;;;;;;;13.98;11.25;;;;;;;;;;4981247;28;20493;-76
2022/08/23 09:00:05;;;;;;;11.27;10.05;;;;;;;;;;4972329;28;20050;-79
2022/08/23 09:02:36;;;;;;;13.98;10.77;;;;;;;;;;4974381;28;20026;-75
2022/08/23 09:05:04;;;;;;;14.38;10.10;;;;;;;;;;4977775;28;20118;-77
2022/08/23 09:07:39;;;;;;;12.80;9.98;;;;;;;;;;4982266;28;20096;-77
2022/08/23 09:10:05;;;;;;;18.15;14.95;;;;;;;;;;4975516;28;20117;-78
2022/08/23 09:12:43;;;;;;;13.90;12.27;;;;;;;;;;4967004;28;20487;-79
2022/08/23 09:15:21;;;;;;;13.57;11.38;;;;;;;;;;4966146;28;20022;-78
2022/08/23 09:17:50;;;;;;;17.42;14.07;;;;;;;;;;4989694;28;20068;-78
2022/08/23 09:20:19;;;;;;;38.22;28.30;;;;;;;;;;5003305;23;20081;-65
2022/08/23 09:22:47;;;;;;;30.45;19.92;;;;;;;;;;4970058;28;20031;-66
2022/08/23 09:25:15;;;;;;;11.80;8.93;;;;;;;;;;4976343;28;20552;-66
2022/08/23 09:27:42;;;;;;;15.40;11.55;;;;;;;;;;4983331;28;20031;-67
2022/08/23 09:30:09;;;;;;;10.63;8.60;;;;;;;;;;4988054;28;20030;-66
2022/08/23 09:32:36;;;;;;;14.18;10.75;;;;;;;;;;4990441;28;20030;-67
2022/08/23 09:35:11;;;;;;;14.48;10.15;;;;;;;;;;4991735;28;20018;-67
2022/08/23 09:37:56;;;;;;;15.05;11.00;;;;;;;;;;4993101;28;20038;-67
2022/08/23 09:40:25;;;;;;;8.52;7.63;;;;;;;;;;4995641;28;20046;-66
2022/08/23 09:43:03;;;;;;;9.23;7.97;;;;;;;;;;4995333;28;20369;-66
2022/08/23 09:45:31;;;;;;;8.07;6.50;;;;;;;;;;4986343;28;20563;-64
2022/08/23 09:47:57;;;;;;;8.55;6.60;;;;;;;;;;4995611;28;20097;-65
2022/08/23 09:50:24;;;;;;;8.68;6.20;;;;;;;;;;4995561;28;20022;-67
2022/08/23 09:52:54;;;;;;;7.35;5.78;;;;;;;;;;4995004;28;20026;-67
2022/08/23 09:55:41;;;;;;;12.05;6.07;;;;;;;;;;4995188;28;20113;-66
2022/08/23 09:58:17;;;;;;;11.27;6.80;;;;;;;;;;4979582;28;20030;-66
2022/08/23 10:00:44;;;;;;;9.43;6.45;;;;;;;;;;4994463;28;20030;-65
2022/08/23 10:03:26;;;;;;;9.88;5.90;;;;;;;;;;4995145;28;20125;-66
2022/08/23 10:05:54;;;;;;;10.15;5.80;;;;;;;;;;4994895;28;20435;-65
2022/08/23 10:08:32;;;;;;;8.15;5.70;;;;;;;;;;4994831;28;20046;-65
2022/08/23 10:11:01;;;;;;;8.90;4.60;;;;;;;;;;4992892;28;20026;-63
2022/08/23 10:13:28;;;;;;;6.78;4.63;;;;;;;;;;4994678;28;20034;-66
2022/08/23 10:15:54;;;;;;;7.28;4.63;;;;;;;;;;4994137;28;20492;-64
2022/08/23 10:18:38;;;;;;;9.35;5.20;;;;;;;;;;4994262;28;20030;-66
2022/08/23 10:21:04;;;;;;;8.23;4.88;;;;;;;;;;4980996;28;20073;-64
2022/08/23 10:23:47;;;;;;;8.18;4.65;;;;;;;;;;4994563;28;20129;-65
2022/08/23 10:26:24;;;;;;;6.97;5.22;;;;;;;;;;4994248;28;20030;-66
2022/08/23 10:31:57;;;;;;;9.48;5.30;;;;;;;;;;4995034;28;20033;-66
2022/08/23 10:34:41;;;;;;;6.07;4.63;;;;;;;;;;4994087;28;20022;-65
2022/08/23 10:37:10;;;;;;;12.63;5.40;;;;;;;;;;4994089;28;20010;-65
2022/08/23 10:39:43;;;;;;;7.45;5.35;;;;;;;;;;4985490;28;20072;-65
2022/08/23 10:42:27;;;;;;;8.45;5.80;;;;;;;;;;4993859;28;20221;-65
2022/08/23 10:45:02;;;;;;;6.60;5.07;;;;;;;;;;4981529;28;20155;-74
2022/08/23 10:47:36;;;;;;;8.50;5.40;;;;;;;;;;4990335;28;20033;-73
2022/08/23 10:50:07;;;;;;;7.78;6.50;;;;;;;;;;4994240;28;20026;-73
2022/08/23 10:52:38;;;;;;;8.02;4.80;;;;;;;;;;4976489;28;20030;-75
2022/08/23 10:55:16;;;;;;;7.57;5.03;;;;;;;;;;4994263;28;20026;-74
2022/08/23 10:57:43;;;;;;;7.13;5.43;;;;;;;;;;4993535;28;20207;-74
2022/08/23 11:00:17;;;;;;;6.90;5.03;;;;;;;;;;4975659;28;20384;-75
2022/08/23 11:02:43;;;;;;;7.47;5.75;;;;;;;;;;4993653;28;20025;-74
2022/08/23 11:05:21;;;;;;;9.88;6.03;;;;;;;;;;4994157;28;20019;-73
2022/08/23 11:08:16;;;;;;;10.55;5.88;;;;;;;;;;4992305;28;20388;-74
2022/08/23 11:10:46;;;;;;;8.27;5.05;;;;;;;;;;4977373;28;20031;-77
2022/08/23 11:13:12;;;;;;;8.95;5.47;;;;;;;;;;4975469;28;20513;-77
2022/08/23 11:15:57;;;;;;;7.10;5.28;;;;;;;;;;4993845;28;20022;-75
2022/08/23 11:18:26;;;;;;;7.57;3.65;;;;;;;;;;4991355;28;20018;-76
2022/08/23 11:20:52;;;;;;;5.13;3.83;;;;;;;;;;4993445;28;20062;-73
2022/08/23 11:23:37;;;;;;;5.47;3.50;;;;;;;;;;4993669;28;20045;-74
2022/08/23 11:26:04;;;;;;;5.72;3.33;;;;;;;;;;4992490;28;20042;-72
2022/08/23 11:28:41;;;;;;;6.18;3.67;;;;;;;;;;4993658;28;20089;-74
2022/08/23 11:31:07;;;;;;;5.18;3.20;;;;;;;;;;4976496;28;20407;-74
2022/08/23 11:33:36;;;;;;;6.22;3.80;;;;;;;;;;4996499;28;20022;-74
2022/08/23 11:36:09;;;;;;;5.00;3.40;;;;;;;;;;4989321;28;20023;-72
2022/08/23 11:38:47;;;;;;;6.95;3.67;;;;;;;;;;4993096;28;20023;-74
2022/08/23 11:41:16;;;;;;;7.30;3.50;;;;;;;;;;4992996;28;20484;-73
2022/08/23 11:43:44;;;;;;;6.10;3.83;;;;;;;;;;4993293;28;20034;-74
2022/08/23 11:46:25;;;;;;;6.82;3.80;;;;;;;;;;4984024;28;20092;-72
2022/08/23 11:49:03;;;;;;;6.88;4.30;;;;;;;;;;4987022;28;20060;-71
2022/08/23 11:51:37;;;;;;;7.20;4.43;;;;;;;;;;4992247;28;20077;-74
2022/08/23 11:54:20;;;;;;;8.32;4.78;;;;;;;;;;4972575;28;20023;-73
2022/08/23 11:57:02;;;;;;;7.80;4.35;;;;;;;;;;4983559;28;20022;-72
2022/08/23 11:59:33;;;;;;;7.55;4.63;;;;;;;;;;4992360;28;20031;-76
2022/08/23 12:02:19;;;;;;;7.25;4.75;;;;;;;;;;4992184;28;20025;-74
2022/08/23 12:04:51;;;;;;;10.88;5.25;;;;;;;;;;4991782;28;20030;-73
2022/08/23 12:07:37;;;;;;;7.10;4.03;;;;;;;;;;4976015;28;20022;-73
2022/08/23 12:10:04;;;;;;;7.25;4.43;;;;;;;;;;4986980;28;20030;-74
2022/08/23 12:12:32;;;;;;;4.45;4.05;;;;;;;;;;4991526;28;20030;-75
2022/08/23 12:14:59;;;;;;;5.28;3.72;;;;;;;;;;4992755;28;20031;-75
2022/08/23 12:17:25;;;;;;;7.82;3.92;;;;;;;;;;4991970;28;20029;-75
2022/08/23 12:20:04;;;;;;;10.52;4.85;;;;;;;;;;4992936;28;20396;-75
2022/08/23 12:22:50;;;;;;;9.43;4.28;;;;;;;;;;4992501;28;20022;-73
2022/08/23 12:25:18;;;;;;;7.35;4.30;;;;;;;;;;4974083;28;20053;-74
2022/08/23 12:28:01;;;;;;;7.30;3.30;;;;;;;;;;5000260;28;20030;-73
2022/08/23 12:30:33;;;;;;;8.05;4.30;;;;;;;;;;4992502;28;20033;-73
2022/08/23 12:33:05;;;;;;;5.65;3.90;;;;;;;;;;4973517;28;20392;-74
2022/08/23 12:35:38;;;;;;;5.85;4.00;;;;;;;;;;4978012;28;20023;-74
2022/08/23 12:38:07;;;;;;;5.88;4.05;;;;;;;;;;4973888;28;20069;-75
2022/08/23 12:40:44;;;;;;;8.25;4.55;;;;;;;;;;4991699;28;20361;-75
2022/08/23 12:43:15;;;;;;;6.70;4.57;;;;;;;;;;4991953;28;20503;-74
2022/08/23 12:45:41;;;;;;;;;;;;;;;;;;4975353;28;20092;-74
2022/08/23 12:48:10;;;;;;;5.97;5.00;;;;;;;;;;4992047;28;19906;-74
2022/08/23 12:50:37;;;;;;;6.82;4.28;;;;;;;;;;4990905;28;20097;-74
2022/08/23 12:53:05;;;;;;;6.05;4.93;;;;;;;;;;4986566;28;20105;-75
2022/08/23 12:55:32;;;;;;;8.50;5.93;;;;;;;;;;4986468;28;20133;-73
2022/08/23 12:57:59;;;;;;;10.98;7.25;;;;;;;;;;4991749;28;20035;-74
2022/08/23 13:00:31;;;;;;;8.20;4.57;;;;;;;;;;4992413;28;20029;-74
2022/08/23 13:02:57;;;;;;;8.00;4.45;;;;;;;;;;4979093;28;20502;-75
2022/08/23 13:05:31;;;;;;;19.70;12.55;;;;;;;;;;4974663;28;20034;-74
2022/08/23 13:07:58;;;;;;;8.68;5.63;;;;;;;;;;4985296;28;20019;-74
2022/08/23 13:10:25;;;;;;;10.90;5.88;;;;;;;;;;4973828;28;20033;-74
2022/08/23 13:12:51;;;;;;;5.35;4.18;;;;;;;;;;4991447;28;20524;-73
2022/08/23 13:15:36;;;;;;;4.43;3.90;;;;;;;;;;4991649;28;20116;-75
2022/08/23 13:18:02;;;;;;;7.72;4.00;;;;;;;;;;4985900;28;20033;-75
2022/08/23 13:20:28;;;;;;;8.25;4.32;;;;;;;;;;4992122;28;20030;-76
2022/08/23 13:23:08;;;;;;;8.07;4.20;;;;;;;;;;4975055;28;20030;-76
2022/08/23 13:25:40;;;;;;;7.25;4.65;;;;;;;;;;4982669;28;20038;-77
2022/08/23 13:28:20;;;;;;;8.73;4.40;;;;;;;;;;4991839;28;20033;-73
2022/08/23 13:30:57;;;;;;;7.10;4.18;;;;;;;;;;4990896;28;20025;-78
2022/08/23 13:33:23;;;;;;;4.85;4.40;;;;;;;;;;4992108;28;20444;-73
2022/08/23 13:35:51;;;;;;;7.07;5.10;;;;;;;;;;4973838;28;20113;-76
2022/08/23 13:38:21;;;;;;;7.97;5.38;;;;;;;;;;4991527;28;20033;-73
2022/08/23 13:41:04;;;;;;;6.00;4.75;;;;;;;;;;4970759;28;20350;-72
2022/08/23 13:43:42;;;;;;;8.98;4.60;;;;;;;;;;4973984;28;20031;-77
2022/08/23 13:46:10;;;;;;;7.28;4.38;;;;;;;;;;4991160;28;20058;-75
2022/08/23 13:48:37;;;;;;;8.05;4.68;;;;;;;;;;4991380;28;20034;-77
2022/08/23 13:51:17;;;;;;;7.85;4.43;;;;;;;;;;4991629;28;20022;-76
2022/08/23 13:53:43;;;;;;;7.13;3.95;;;;;;;;;;4991766;28;20026;-76
2022/08/23 13:56:09;;;;;;;37.35;25.80;;;;;;;;;;4982137;28;20018;-72
2022/08/23 13:58:35;;;;;;;7.13;5.15;;;;;;;;;;4990949;28;20026;-76
2022/08/23 14:01:03;;;;;;;6.28;4.18;;;;;;;;;;4973695;28;20437;-74
2022/08/23 14:03:30;;;;;;;8.00;4.50;;;;;;;;;;4991699;28;20552;-74
2022/08/23 14:05:56;;;;;;;5.88;4.03;;;;;;;;;;4991660;28;20038;-72
2022/08/23 14:08:22;;;;;;;10.52;5.50;;;;;;;;;;4990959;28;20054;-73
2022/08/23 14:10:48;;;;;;;8.32;4.75;;;;;;;;;;4990951;28;20724;-73
2022/08/23 14:13:15;;;;;;;10.30;4.68;;;;;;;;;;4990998;28;20025;-73
2022/08/23 14:15:43;;;;;;;8.18;3.63;;;;;;;;;;4973332;28;20033;-72
2022/08/23 14:18:09;;;;;;;5.88;4.07;;;;;;;;;;4973356;28;20473;-72
2022/08/23 14:20:35;;;;;;;4.78;3.45;;;;;;;;;;4990934;28;20076;-75
2022/08/23 14:23:01;;;;;;;6.40;4.30;;;;;;;;;;4988705;28;20023;-73
2022/08/23 14:25:28;;;;;;;5.10;3.42;;;;;;;;;;4974337;28;20026;-74
2022/08/23 14:27:54;;;;;;;7.28;4.07;;;;;;;;;;4987814;28;20084;-75
2022/08/23 14:30:46;;;;;;;7.40;4.03;;;;;;;;;;4994369;28;20030;-75
2022/08/23 14:33:12;;;;;;;7.78;4.70;;;;;;;;;;4973938;28;20035;-75
2022/08/23 14:35:38;;;;;;;6.90;4.13;;;;;;;;;;4990043;28;20022;-76
2022/08/23 14:38:04;;;;;;;8.35;3.85;;;;;;;;;;4996658;28;20018;-77
2022/08/23 14:40:31;;;;;;;6.97;4.13;;;;;;;;;;4990050;28;20038;-74
2022/08/23 14:43:26;;;;;;;8.43;5.00;;;;;;;;;;4977185;28;20027;-76
2022/08/23 14:45:56;;;;;;;3.80;3.35;;;;;;;;;;4985791;28;20015;-78
2022/08/23 14:48:22;;;;;;;6.63;3.72;;;;;;;;;;4994636;28;20026;-73
2022/08/23 14:51:57;;;;;;;7.50;4.03;;;;;;;;;;5014332;27;20316;-74